Moises Benzaquen Rengifo Airport
SPMS : rendu visible

Aérodrome :











RETROUVEZ-NOUS SUR...

 
LOGIN :

S'inscrire | Disclaimer

   EN    FR    IT 

 









Légende :    VFR   VFR Marginal   IFR   IFR Intensif   IFR Très Intensif
Visi : 
Plafond : 
>= 8 km
>= 3000ft
5 à 8 km
1000 à 3000 ft
1500m à 5 km
500 à 1000 ft
800 à 1500m
200 à 500 ft
< 800m
< 200 ft
Symboles :   Orages  Brouillard  Fortes neiges  Fortes précipitations  Vent > 20 kt






- Altitude de l'aérodrome : 587 ft
- Code IATA : YMS


SPMS - Moises Benzaquen Rengifo

METAR N/A
TAF SPMS
Valide du 20 à 18h jusqu'au 21 à 18h UTC


201700Z 2018/2118 30004KT 9999 FEW012 SCT100 TX35/2020Z TN24/2111Z
TEMPO 2104/2108 35005KT 5000 -RA BKN012 BKN070
TEMPO 2109/2113 00000KT 3000 BCFG BKN008 OVC070



MET'MAP, la Météo Aéronautique d'un coup d'oeil ! - Copyright ORBIFLY Décembre 2007 - Disclaimer

ORBIFLY MET'MAP TEAM :

Programmation & Développement : Alexandra Zaïnal
Sur une idée originale de : Baudouin d'Aumeries
Assistance à la programmation : Marc-Olivier Méhu
Soutien technique & logistique : Manuel Goepfert

Contact : metmap@orbifly.com




SOURCES & CREDITS :

   NOAA       Earth
Advisory